KINDAKUN POINT, BC current weather conditions

sailwx.info

Wind from 170 at 17 knots

Air temperature 14.0° C

Last reported at 2014-Sep-22 00:00 UTC.
Time now 2014-Sep-22 02:15 UTC

Location: N 53°19' W 132°46'.
View on Google Maps.

See reports from other nearby stations

  
Tides and Currents Weather Stations Pressure Air Temp Water Temp Dewpoint Dewpoint Depression Visibility Wind Speed Wind Dir Waves Ship Positions
date/time (UTC)wind fromknots sea level pressurealtimeterstation pressurevisibilityair tempwater tempwave heightnotes
2014-Sep-22 01:00 170 22 gusting 27 14.0
2014-Sep-22 00:00 170 17 14.0
2014-Sep-21 23:00 180 16 14.0
2014-Sep-21 22:00 200 19 15.0
2014-Sep-21 21:00 170 22 gusting 27 15.0
2014-Sep-21 20:00 180 26 gusting 31 15.0
2014-Sep-21 19:00 170 38 gusting 49 17.0
2014-Sep-21 18:00 170 31 gusting 42 17.0
2014-Sep-21 17:00 170 26 gusting 34 17.0
2014-Sep-21 16:00 160 24 gusting 30 17.0
2014-Sep-21 15:00 170 27 gusting 34 17.0
2014-Sep-21 14:00 180 29 gusting 35 16.0
2014-Sep-21 13:00 170 17 gusting 24 16.0
2014-Sep-21 12:00 170 20 gusting 27 16.0
2014-Sep-21 11:00 180 20 gusting 27 16.0
2014-Sep-21 10:00 180 23 gusting 27 16.0
2014-Sep-21 09:00 180 25 gusting 30 16.0
2014-Sep-21 08:00 180 26 16.0
2014-Sep-21 07:00 180 27 16.0
2014-Sep-21 06:00 180 23 gusting 27 16.0
2014-Sep-21 05:00 180 24 gusting 30 17.0
2014-Sep-21 04:00 180 20 gusting 26 17.0
2014-Sep-21 03:00 170 25 gusting 30 16.0
2014-Sep-21 02:00 170 26 gusting 33 16.0
2014-Sep-21 01:00 170 27 gusting 32 16.0
2014-Sep-21 00:00 170 27 gusting 33 16.0
2014-Sep-20 23:00 170 26 gusting 32 16.0
2014-Sep-20 22:00 170 27 gusting 33 16.0
2014-Sep-20 21:00 170 29 gusting 34 16.0
2014-Sep-20 20:00 170 29 gusting 35 16.0
2014-Sep-20 19:00 170 29 gusting 34 16.0
2014-Sep-20 18:00 170 27 gusting 33 16.0
2014-Sep-20 17:00 170 30 gusting 35 16.0
2014-Sep-20 16:00 170 29 gusting 35 16.0
2014-Sep-20 15:00 180 24 gusting 30 16.0
2014-Sep-20 14:00 170 26 gusting 32 16.0
2014-Sep-20 13:00 170 27 gusting 33 16.0
2014-Sep-20 12:00 170 27 gusting 33 16.0
2014-Sep-20 11:00 170 27 gusting 33 16.0
2014-Sep-20 10:00 170 33 gusting 39 16.0
2014-Sep-20 09:00 170 35 gusting 42 16.0
2014-Sep-20 08:00 170 38 gusting 49 16.0
2014-Sep-20 07:00 170 33 gusting 41 16.0
2014-Sep-20 06:00 160 13 gusting 19 14.0
2014-Sep-20 05:00 130 10 14.0
2014-Sep-20 04:00 140 13 gusting 20 14.0
2014-Sep-20 03:00 120 10 gusting 16 15.0
2014-Sep-20 02:00 160 15 15.0